Impacts METAR Board
IDs:

KSLC - Salt Lake City Intl, UT, US

Updated at: 1300 UTC 13 Dec 2018
Potential Impact None Slight Moderate High
Time 13/01Z 13/02Z 13/03Z 13/04Z 13/05Z 13/06Z 13/07Z 13/08Z 13/09Z 13/10Z 13/11Z 13/12Z 13/13Z
Temp32 31 32 31 25 28 27 27 24 24 24 24 23
Dewpt27 26 23 24 22 24 22 22 20 18 17 16 15
Altim30.25 30.27 30.31 30.35 30.38 30.39 30.41 30.40 30.42 30.43 30.44 30.44 30.44
VIS10 10 10 10 10 10 10 10 10 10 10 10 10
CIG-- -- 65 60 -- -- -- -- -- -- -- -- --
CoverSCTSCTBKNBKNSCTFEWFEWCLRFEWFEWFEWFEWFEW
FltCatVFRVFRVFRVFRVFRVFRVFRVFRVFRVFRVFRVFRVFR
WX--------------------------
WDir4035034034034000100140150160130130
WSpd7 6 7 7 6 0 0 3 4 6 6 7 7
WGst-- -- -- -- -- -- -- -- -- -- -- -- --
Raw hourly METARs
KSLC 130054Z 04007KT 10SM FEW060 SCT230 00/M03 A3025 RMK AO2 SNE19 SLP259 P0000 T00001028
KSLC 130154Z 35006KT 10SM SCT045 SCT075 M01/M03 A3027 RMK AO2 SLP266 T10061033
KSLC 130254Z 34007KT 10SM SCT055 BKN065 00/M05 A3031 RMK AO2 SLP280 60000 T00001050 53023
KSLC 130354Z 34007KT 10SM FEW047 BKN060 M01/M04 A3035 RMK AO2 SLP296 T10061044
KSLC 130454Z 34006KT 10SM SCT050 M04/M06 A3038 RMK AO2 SLP311 T10391056
KSLC 130554Z 00000KT 10SM FEW055 M02/M04 A3039 RMK AO2 SLP313 60000 T10221044 10011 21044 51025
KSLC 130654Z 00000KT 10SM FEW055 M03/M06 A3041 RMK AO2 SLP315 T10281056 400281044
KSLC 130754Z 10003KT 10SM CLR M03/M06 A3040 RMK AO2 SLP311 T10281056
KSLC 130854Z 14004KT 10SM FEW060 M04/M07 A3042 RMK AO2 SLP320 T10441067 53007
KSLC 130954Z 15006KT 10SM FEW050 M04/M08 A3043 RMK AO2 SLP325 T10441078 VISNO NW RNWY $
KSLC 131054Z 16006KT 10SM FEW050 FEW200 M04/M08 A3044 RMK AO2 SLP326 T10441083 $
KSLC 131154Z 13007KT 10SM FEW050 FEW200 M04/M09 A3044 RMK AO2 SLP327 70010 T10441089 11022 21050 50005 VISNO NW RNWY $
KSLC 131254Z 13007KT 10SM FEW055 FEW200 M05/M09 A3044 RMK AO2 SLP332 T10501094 VISNO NW RNWY $



Page loaded:  13:00 UTC  |   05:00 AM Pacific  |   06:00 AM Mountain  |   07:00 AM Central  |   08:00 AM Eastern

 

ADVISORIES

FORECASTS

FORECASTS

OBSERVATIONS

USER TOOLS

ABOUT US